Time;durP1;ratioP1;P1;durP2;ratioP2;P2;SDS_P1;SDS_P2;PMS_P1;PMS_P2;Temp;Humidity;BMP_temperature;BMP_pressure;BME280_temperature;BME280_humidity;BME280_pressure;Samples;Min_cycle;Max_cycle;Signal;HPM_P1;HPM_P2
2021/07/24 00:01:48;;;;;;;8.73;8.03;;;18.60;99.90;;;;;;5097012;28;20177;-66
2021/07/24 00:04:14;;;;;;;9.30;8.40;;;18.50;99.90;;;;;;5094945;28;20189;-66
2021/07/24 00:06:39;;;;;;;10.47;9.57;;;18.50;99.90;;;;;;5094228;28;20185;-66
2021/07/24 00:09:05;;;;;;;11.17;7.90;;;18.50;99.90;;;;;;5094825;28;20168;-66
2021/07/24 00:11:32;;;;;;;10.23;8.10;;;18.50;99.90;;;;;;5094374;28;20693;-66
2021/07/24 00:13:58;;;;;;;9.70;8.80;;;18.40;99.90;;;;;;5094330;28;20186;-66
2021/07/24 00:16:23;;;;;;;9.47;8.43;;;18.30;99.90;;;;;;5094332;28;20177;-66
2021/07/24 00:18:49;;;;;;;9.47;8.67;;;18.30;99.90;;;;;;5094527;28;20176;-67
2021/07/24 00:21:15;;;;;;;10.13;9.17;;;18.30;99.90;;;;;;5094324;28;20181;-67
2021/07/24 00:23:40;;;;;;;8.97;8.17;;;18.30;99.90;;;;;;5093879;28;20576;-66
2021/07/24 00:26:06;;;;;;;10.33;8.73;;;18.20;99.90;;;;;;5094384;28;20177;-67
2021/07/24 00:28:32;;;;;;;9.03;8.30;;;18.20;99.90;;;;;;5094258;28;20174;-66
2021/07/24 00:30:57;;;;;;;9.27;8.57;;;18.20;99.90;;;;;;5094328;28;20275;-66
2021/07/24 00:33:23;;;;;;;10.80;9.80;;;18.10;99.90;;;;;;5094156;28;20543;-66
2021/07/24 00:35:48;;;;;;;10.07;9.07;;;18.00;99.90;;;;;;5093058;28;20170;-67
2021/07/24 00:38:14;;;;;;;11.23;8.57;;;18.00;99.90;;;;;;5076022;28;20169;-67
2021/07/24 00:40:44;;;;;;;9.67;8.77;;;17.80;99.90;;;;;;5094028;28;20178;-66
2021/07/24 00:43:10;;;;;;;10.03;8.83;;;17.80;99.90;;;;;;5093915;28;20212;-66
2021/07/24 00:45:46;;;;;;;11.10;10.10;;;17.70;99.90;;;;;;5093722;28;20180;-66
2021/07/24 00:48:20;;;;;;;11.07;9.97;;;17.70;99.90;;;;;;5093876;28;20174;-66
2021/07/24 00:50:48;;;;;;;11.00;9.90;;;17.70;99.90;;;;;;5093741;28;20204;-66
2021/07/24 00:53:20;;;;;;;10.37;9.33;;;17.70;99.90;;;;;;5075379;28;20573;-66
2021/07/24 00:55:50;;;;;;;10.00;9.10;;;17.60;99.90;;;;;;5093633;28;20165;-66
2021/07/24 00:58:33;;;;;;;11.73;10.63;;;17.60;99.90;;;;;;5093502;28;20181;-67
2021/07/24 01:01:03;;;;;;;9.93;8.97;;;17.60;99.90;;;;;;5093870;28;20177;-66
2021/07/24 01:03:28;;;;;;;11.43;10.33;;;17.50;99.90;;;;;;5093368;28;20197;-66
2021/07/24 01:05:56;;;;;;;11.80;10.60;;;17.50;99.90;;;;;;5093190;28;20311;-66
2021/07/24 01:08:23;;;;;;;9.97;9.20;;;17.40;99.90;;;;;;5093434;28;20184;-66
2021/07/24 01:10:50;;;;;;;11.17;9.87;;;17.40;99.90;;;;;;5093228;28;20232;-66
2021/07/24 01:13:16;;;;;;;11.70;10.57;;;17.40;99.90;;;;;;5093619;28;20189;-67
2021/07/24 01:15:52;;;;;;;11.10;10.20;;;17.30;99.90;;;;;;5092843;28;20205;-66
2021/07/24 01:18:19;;;;;;;11.30;10.37;;;17.30;99.90;;;;;;5093402;28;20169;-66
2021/07/24 01:20:46;;;;;;;10.47;9.57;;;17.30;99.90;;;;;;5092983;28;20197;-66
2021/07/24 01:23:13;;;;;;;11.03;9.93;;;17.30;99.90;;;;;;5093256;28;20193;-66
2021/07/24 01:25:43;;;;;;;10.63;9.63;;;17.20;99.90;;;;;;5092683;28;20172;-66
2021/07/24 01:28:08;;;;;;;11.50;10.50;;;17.10;99.90;;;;;;5093201;28;20161;-66
2021/07/24 01:30:34;;;;;;;11.10;10.20;;;17.20;99.90;;;;;;5092960;28;20267;-67
2021/07/24 01:32:59;;;;;;;11.90;10.80;;;17.20;99.90;;;;;;5092904;28;20196;-67
2021/07/24 01:35:25;;;;;;;10.97;9.97;;;17.30;99.90;;;;;;5093078;28;20181;-67
2021/07/24 01:37:51;;;;;;;10.80;9.80;;;17.20;99.90;;;;;;5092782;28;20187;-66
2021/07/24 01:40:16;;;;;;;11.53;10.33;;;17.20;99.90;;;;;;5092968;28;20539;-66
2021/07/24 01:42:42;;;;;;;10.23;9.40;;;17.10;99.90;;;;;;5092534;28;20527;-66
2021/07/24 01:45:08;;;;;;;12.27;10.80;;;17.10;99.90;;;;;;5092631;28;20169;-66
2021/07/24 01:47:35;;;;;;;11.67;10.43;;;17.00;99.90;;;;;;5091667;28;20227;-66
2021/07/24 01:52:50;;;;;;;12.40;10.23;;;17.00;99.90;;;;;;5092544;28;20188;-66
2021/07/24 01:55:37;;;;;;;11.53;10.53;;;16.90;99.90;;;;;;5092529;28;20174;-66
2021/07/24 01:58:04;;;;;;;12.07;10.10;;;16.90;99.90;;;;;;5092482;28;20220;-66
2021/07/24 02:00:33;;;;;;;10.90;10.00;;;16.90;99.90;;;;;;5092882;28;20176;-67
2021/07/24 02:03:02;;;;;;;11.00;9.90;;;16.90;99.90;;;;;;5093320;28;20200;-71
2021/07/24 02:05:43;;;;;;;11.80;10.70;;;16.90;99.90;;;;;;5093175;28;20547;-72
2021/07/24 02:08:11;;;;;;;11.00;10.03;;;16.70;99.90;;;;;;5093625;28;20233;-69
2021/07/24 02:10:39;;;;;;;11.67;10.57;;;16.70;99.90;;;;;;5093478;28;20212;-69
2021/07/24 02:13:05;;;;;;;11.10;10.20;;;16.60;99.90;;;;;;5093160;28;20277;-70
2021/07/24 02:15:32;;;;;;;11.40;10.40;;;16.60;99.90;;;;;;5093231;28;20769;-71
2021/07/24 02:18:00;;;;;;;11.60;10.60;;;16.60;99.90;;;;;;5074805;28;20176;-70
2021/07/24 02:20:26;;;;;;;11.37;10.17;;;16.60;99.90;;;;;;5074952;28;20185;-72
2021/07/24 02:22:52;;;;;;;12.87;11.57;;;16.70;99.90;;;;;;5091948;28;20189;-69
2021/07/24 02:25:18;;;;;;;11.60;10.57;;;16.60;99.90;;;;;;5074741;28;20188;-72
2021/07/24 02:27:48;;;;;;;11.97;10.10;;;16.60;99.90;;;;;;5093239;28;20193;-69
2021/07/24 02:30:14;;;;;;;11.57;10.47;;;16.60;99.90;;;;;;5075013;28;20551;-71
2021/07/24 02:32:40;;;;;;;11.53;10.33;;;16.50;99.90;;;;;;5092782;28;20169;-69
2021/07/24 02:35:07;;;;;;;12.63;11.00;;;16.50;99.90;;;;;;5093124;28;20195;-70
2021/07/24 02:37:33;;;;;;;12.83;10.57;;;16.40;99.90;;;;;;5092403;28;20178;-67
2021/07/24 02:39:59;;;;;;;11.83;10.73;;;16.40;99.90;;;;;;5092080;28;20227;-65
2021/07/24 02:42:24;;;;;;;14.73;11.43;;;16.40;99.90;;;;;;5091532;28;20172;-67
2021/07/24 02:44:50;;;;;;;12.57;11.47;;;16.30;99.90;;;;;;5091529;28;20193;-66
2021/07/24 02:47:16;;;;;;;12.00;10.90;;;16.10;99.90;;;;;;5092393;28;20173;-67
2021/07/24 02:49:42;;;;;;;12.63;11.43;;;16.30;99.90;;;;;;5091612;28;20184;-67
2021/07/24 02:52:07;;;;;;;12.40;11.23;;;16.30;99.90;;;;;;5091787;28;20201;-67
2021/07/24 02:54:33;;;;;;;13.00;11.70;;;16.40;99.90;;;;;;5209931;22;20226;-69
2021/07/24 02:56:59;;;;;;;12.00;10.97;;;16.30;99.90;;;;;;5073050;28;20180;-71
2021/07/24 02:59:25;;;;;;;11.73;10.63;;;16.30;99.90;;;;;;5054974;28;20202;-71
2021/07/24 03:01:51;;;;;;;14.37;11.07;;;16.30;99.90;;;;;;5053000;28;20190;-69
2021/07/24 03:04:16;;;;;;;12.27;11.07;;;16.20;99.90;;;;;;5061620;28;20203;-69
2021/07/24 03:06:42;;;;;;;13.23;11.27;;;16.30;99.90;;;;;;5052650;28;20705;-73
2021/07/24 03:09:08;;;;;;;13.00;11.73;;;16.30;99.90;;;;;;5052722;28;20186;-69
2021/07/24 03:11:35;;;;;;;13.20;11.23;;;16.20;99.90;;;;;;5052774;28;20264;-71
2021/07/24 03:14:01;;;;;;;13.67;12.30;;;16.20;99.90;;;;;;5051839;28;20194;-71
2021/07/24 03:16:27;;;;;;;12.17;11.03;;;16.20;99.90;;;;;;5051191;28;20171;-69
2021/07/24 03:18:53;;;;;;;13.10;11.23;;;16.20;99.90;;;;;;5053462;28;20546;-69
2021/07/24 03:21:19;;;;;;;13.27;11.83;;;16.00;99.90;;;;;;5051319;28;20210;-71
2021/07/24 03:23:45;;;;;;;12.70;11.40;;;15.90;99.90;;;;;;5052549;28;20244;-70
2021/07/24 03:26:10;;;;;;;12.43;11.13;;;15.90;99.90;;;;;;5052188;28;20167;-71
2021/07/24 03:28:36;;;;;;;11.70;10.40;;;15.90;99.90;;;;;;5060861;28;20178;-71
2021/07/24 03:31:02;;;;;;;11.60;10.53;;;15.90;99.90;;;;;;5070513;28;20587;-74
2021/07/24 03:33:28;;;;;;;12.47;10.70;;;15.90;99.90;;;;;;5051182;28;20569;-71
2021/07/24 03:35:54;;;;;;;11.07;10.07;;;15.90;99.90;;;;;;5050965;28;20687;-74
2021/07/24 03:38:22;;;;;;;17.30;11.27;;;15.90;99.90;;;;;;5071898;28;20192;-71
2021/07/24 03:40:48;;;;;;;12.50;10.70;;;16.00;99.90;;;;;;5072327;28;20204;-71
2021/07/24 03:43:14;;;;;;;11.70;10.60;;;16.10;99.90;;;;;;5053340;28;20294;-71
2021/07/24 03:45:40;;;;;;;11.80;10.80;;;16.10;99.90;;;;;;5052455;28;20441;-71
2021/07/24 03:48:06;;;;;;;12.30;11.20;;;16.00;99.90;;;;;;5053536;28;20575;-73
2021/07/24 03:50:32;;;;;;;12.30;11.13;;;16.00;99.90;;;;;;5052084;28;20183;-73
2021/07/24 03:52:58;;;;;;;12.33;11.13;;;16.10;99.90;;;;;;5066603;28;20674;-74
2021/07/24 03:55:24;;;;;;;11.90;10.90;;;16.20;99.90;;;;;;5071977;28;20194;-66
2021/07/24 03:57:51;;;;;;;12.37;11.07;;;16.30;99.90;;;;;;5069385;28;20661;-67
2021/07/24 04:00:17;;;;;;;11.03;10.00;;;16.40;99.90;;;;;;5070757;28;20170;-67
2021/07/24 04:02:43;;;;;;;10.97;9.90;;;16.60;99.90;;;;;;5059714;28;20186;-65
2021/07/24 04:05:10;;;;;;;10.83;9.87;;;16.70;99.90;;;;;;5050536;28;20225;-67
2021/07/24 04:07:38;;;;;;;13.97;11.57;;;16.80;99.90;;;;;;5058478;28;20174;-66
2021/07/24 04:10:08;;;;;;;12.10;10.90;;;16.80;99.90;;;;;;5071572;28;20174;-67
2021/07/24 04:12:40;;;;;;;12.23;11.13;;;16.80;99.90;;;;;;5064560;28;20182;-66
2021/07/24 04:15:07;;;;;;;12.80;11.40;;;16.90;99.90;;;;;;5052936;28;20198;-66
2021/07/24 04:17:33;;;;;;;12.73;11.43;;;17.00;99.90;;;;;;5061466;28;20239;-66
2021/07/24 04:19:59;;;;;;;12.80;11.50;;;17.10;99.90;;;;;;5073167;28;20273;-66
2021/07/24 04:22:24;;;;;;;12.13;10.93;;;17.20;99.90;;;;;;5060531;28;20207;-67
2021/07/24 04:24:50;;;;;;;12.53;11.33;;;17.30;99.90;;;;;;5058452;28;20209;-67
2021/07/24 04:27:16;;;;;;;13.10;11.90;;;17.30;99.90;;;;;;5072980;28;20181;-67
2021/07/24 04:29:41;;;;;;;14.10;12.60;;;17.40;99.90;;;;;;5071125;28;20198;-67
2021/07/24 04:32:07;;;;;;;13.83;12.33;;;17.40;99.90;;;;;;5052898;28;20229;-66
2021/07/24 04:34:33;;;;;;;15.07;13.43;;;17.50;99.90;;;;;;5052943;28;20664;-67
2021/07/24 04:36:58;;;;;;;14.53;12.87;;;17.60;99.90;;;;;;5074219;28;20197;-66
2021/07/24 04:39:24;;;;;;;14.33;12.70;;;17.70;99.90;;;;;;5072811;28;20178;-67
2021/07/24 04:41:50;;;;;;;15.43;13.10;;;17.90;99.90;;;;;;5054551;28;20198;-67
2021/07/24 04:44:15;;;;;;;13.43;12.10;;;18.00;99.90;;;;;;5053539;28;20206;-67
2021/07/24 04:46:42;;;;;;;14.13;12.57;;;18.10;99.90;;;;;;5071177;28;20186;-67
2021/07/24 04:49:07;;;;;;;15.37;13.87;;;18.20;99.90;;;;;;5072663;28;20170;-67
2021/07/24 04:51:36;;;;;;;15.50;14.10;;;18.20;99.90;;;;;;5058037;28;20179;-67
2021/07/24 04:54:04;;;;;;;13.30;12.10;;;18.40;99.90;;;;;;5052282;28;20211;-66
2021/07/24 04:56:31;;;;;;;13.83;12.53;;;18.50;99.90;;;;;;5067612;28;20174;-67
2021/07/24 04:58:58;;;;;;;13.77;12.37;;;18.60;99.90;;;;;;5073640;28;20319;-67
2021/07/24 05:01:24;;;;;;;13.33;11.93;;;18.70;99.90;;;;;;5060510;28;20203;-66
2021/07/24 05:03:49;;;;;;;14.03;11.90;;;18.80;99.90;;;;;;5053371;28;20693;-67
2021/07/24 05:06:15;;;;;;;12.20;11.03;;;18.90;99.90;;;;;;5064195;28;20182;-66
2021/07/24 05:08:41;;;;;;;12.13;11.03;;;19.00;99.90;;;;;;5072123;28;20171;-67
2021/07/24 05:11:07;;;;;;;14.93;12.48;;;19.10;99.90;;;;;;5064097;28;20190;-66
2021/07/24 05:13:33;;;;;;;13.30;12.03;;;19.20;99.90;;;;;;5053061;28;20541;-66
2021/07/24 05:15:58;;;;;;;12.67;11.37;;;19.30;99.90;;;;;;5060176;28;20181;-66
2021/07/24 05:18:24;;;;;;;14.70;11.25;;;19.40;99.90;;;;;;5073113;28;20170;-67
2021/07/24 05:20:49;;;;;;;12.32;11.23;;;19.50;99.90;;;;;;5054846;28;20741;-66
2021/07/24 05:23:15;;;;;;;11.97;10.87;;;19.60;99.90;;;;;;5054237;28;20199;-67
2021/07/24 05:25:42;;;;;;;11.57;10.48;;;19.60;99.90;;;;;;5052811;28;20171;-67
2021/07/24 05:28:08;;;;;;;12.35;11.13;;;19.90;99.90;;;;;;5064519;28;20186;-67
2021/07/24 05:30:33;;;;;;;13.20;11.75;;;20.10;99.90;;;;;;5071492;28;20269;-67
2021/07/24 05:32:59;;;;;;;11.30;10.13;;;20.20;99.90;;;;;;5062914;28;20205;-67
2021/07/24 05:35:25;;;;;;;13.65;10.68;;;20.40;99.90;;;;;;5052550;28;20253;-67
2021/07/24 05:37:50;;;;;;;11.02;10.13;;;20.40;99.90;;;;;;5059263;28;20185;-67
2021/07/24 05:40:16;;;;;;;12.95;11.80;;;20.60;99.90;;;;;;5072733;28;20181;-67
2021/07/24 05:42:42;;;;;;;11.02;10.02;;;20.70;99.90;;;;;;5065142;28;20182;-66
2021/07/24 05:45:08;;;;;;;10.82;9.75;;;20.70;99.90;;;;;;5052354;28;20191;-67
2021/07/24 05:47:33;;;;;;;11.25;10.23;;;20.80;99.90;;;;;;5056602;28;20177;-67
2021/07/24 05:50:00;;;;;;;10.68;9.68;;;20.90;99.90;;;;;;5071521;28;20178;-66
2021/07/24 05:52:26;;;;;;;11.23;10.23;;;20.90;99.90;;;;;;5069755;28;20189;-67
2021/07/24 05:54:52;;;;;;;10.43;9.32;;;21.20;99.90;;;;;;5052342;28;20281;-67
2021/07/24 05:57:18;;;;;;;10.75;9.65;;;21.50;99.90;;;;;;5053093;28;20173;-67
2021/07/24 05:59:43;;;;;;;10.52;9.43;;;21.90;99.90;;;;;;5072374;28;20205;-67
2021/07/24 06:02:13;;;;;;;10.70;9.60;;;22.40;99.90;;;;;;5072279;28;20221;-68
2021/07/24 06:04:43;;;;;;;10.13;9.07;;;22.70;99.90;;;;;;5052345;28;20234;-67
2021/07/24 06:07:09;;;;;;;10.57;9.57;;;23.10;99.90;;;;;;5050148;28;20171;-67
2021/07/24 06:09:35;;;;;;;10.95;9.82;;;23.30;99.90;;;;;;5069880;28;20261;-67
2021/07/24 06:12:01;;;;;;;11.65;10.55;;;23.50;99.90;;;;;;5072202;28;20260;-66
2021/07/24 06:14:26;;;;;;;14.10;10.57;;;23.70;99.90;;;;;;5068837;28;20247;-67
2021/07/24 06:16:52;;;;;;;11.43;10.43;;;23.60;99.90;;;;;;5072432;28;20170;-66
2021/07/24 06:19:18;;;;;;;11.68;9.57;;;23.70;99.90;;;;;;5057589;28;20189;-66
2021/07/24 06:21:45;;;;;;;11.88;10.75;;;23.80;99.90;;;;;;5060739;28;20210;-67
2021/07/24 06:24:13;;;;;;;11.82;10.65;;;23.60;99.90;;;;;;5071633;28;20641;-67
2021/07/24 06:26:39;;;;;;;11.45;10.35;;;23.60;99.90;;;;;;5063535;28;20171;-66
2021/07/24 06:29:05;;;;;;;11.57;10.48;;;23.60;99.90;;;;;;5051833;28;20170;-66
2021/07/24 06:31:31;;;;;;;11.20;10.10;;;23.50;99.90;;;;;;5057395;28;20175;-66
2021/07/24 06:33:56;;;;;;;11.60;10.50;;;23.50;99.90;;;;;;5071048;28;20601;-67
2021/07/24 06:36:22;;;;;;;11.70;10.52;;;23.40;99.90;;;;;;5067331;28;20178;-67
2021/07/24 06:38:48;;;;;;;11.93;10.70;;;23.30;99.90;;;;;;5050426;28;20662;-67
2021/07/24 06:41:13;;;;;;;10.93;9.93;;;23.30;99.90;;;;;;5055677;28;20201;-67
2021/07/24 06:43:39;;;;;;;11.20;10.05;;;23.50;99.90;;;;;;5051209;28;20190;-67
2021/07/24 06:46:09;;;;;;;11.43;10.23;;;23.60;99.90;;;;;;5055942;28;20177;-66
2021/07/24 06:48:35;;;;;;;12.23;11.02;;;23.50;99.90;;;;;;5071413;28;20578;-67
2021/07/24 06:51:00;;;;;;;12.18;10.40;;;23.30;99.90;;;;;;5068247;28;20182;-68
2021/07/24 06:53:26;;;;;;;11.75;10.65;;;23.40;99.90;;;;;;5049903;28;20242;-67
2021/07/24 06:55:56;;;;;;;12.32;11.13;;;23.50;99.90;;;;;;5052208;28;20613;-67
2021/07/24 06:58:21;;;;;;;12.30;11.20;;;23.50;99.90;;;;;;5071372;28;20185;-66
2021/07/24 07:00:47;;;;;;;12.27;11.18;;;23.60;99.90;;;;;;5070834;28;20194;-66
2021/07/24 07:03:13;;;;;;;12.02;10.93;;;23.50;99.90;;;;;;5051517;28;20675;-67
2021/07/24 07:05:38;;;;;;;11.52;10.35;;;23.40;99.90;;;;;;5050883;28;20179;-67
2021/07/24 07:08:04;;;;;;;11.18;10.15;;;23.50;99.90;;;;;;5069194;28;20196;-67
2021/07/24 07:10:29;;;;;;;11.95;10.88;;;23.20;99.90;;;;;;5069759;28;20176;-66
2021/07/24 07:12:55;;;;;;;12.63;10.20;;;23.10;99.90;;;;;;5055949;28;20224;-67
2021/07/24 07:15:24;;;;;;;12.63;11.30;;;23.20;99.90;;;;;;5050950;28;20328;-66
2021/07/24 07:17:51;;;;;;;12.02;10.05;;;23.20;99.90;;;;;;5052442;28;20174;-66
2021/07/24 07:20:17;;;;;;;12.82;11.52;;;23.30;99.90;;;;;;5051128;28;20166;-67
2021/07/24 07:22:42;;;;;;;11.27;10.18;;;23.30;99.90;;;;;;5063740;28;20519;-66
2021/07/24 07:25:08;;;;;;;10.38;9.38;;;23.50;99.90;;;;;;5069566;28;20559;-66
2021/07/24 07:27:34;;;;;;;11.00;9.90;;;23.60;99.90;;;;;;5069311;28;20182;-66
2021/07/24 07:29:59;;;;;;;11.30;9.63;;;23.80;99.90;;;;;;5071266;28;20159;-67
2021/07/24 07:32:25;;;;;;;11.48;9.88;;;24.10;99.90;;;;;;5062958;28;20175;-66
2021/07/24 07:34:52;;;;;;;10.88;9.82;;;24.20;99.90;;;;;;5050553;28;20202;-67
2021/07/24 07:37:17;;;;;;;10.73;9.73;;;24.10;99.90;;;;;;5051063;28;20245;-67
2021/07/24 07:39:43;;;;;;;11.48;9.95;;;24.20;99.90;;;;;;5049907;28;20182;-67
2021/07/24 07:42:08;;;;;;;10.82;9.73;;;24.30;99.90;;;;;;5050998;28;20202;-66
2021/07/24 07:44:34;;;;;;;11.38;10.27;;;24.40;99.90;;;;;;5054521;28;20660;-67
2021/07/24 07:46:59;;;;;;;10.00;9.07;;;24.60;99.90;;;;;;5074804;28;20175;-67
2021/07/24 07:49:25;;;;;;;10.10;9.20;;;24.90;99.90;;;;;;5070646;28;20595;-67
2021/07/24 07:51:51;;;;;;;9.98;9.00;;;24.90;99.90;;;;;;5053407;28;20174;-67
2021/07/24 07:54:16;;;;;;;10.20;9.20;;;24.90;99.90;;;;;;5053238;28;20242;-67
2021/07/24 07:56:42;;;;;;;10.18;9.15;;;24.80;99.90;;;;;;5074773;28;20401;-67
2021/07/24 07:59:07;;;;;;;10.55;9.55;;;24.50;99.90;;;;;;5074508;28;20174;-67
2021/07/24 08:01:34;;;;;;;11.05;10.05;;;24.40;99.90;;;;;;5072727;28;20247;-66
2021/07/24 08:04:00;;;;;;;9.98;9.10;;;24.40;99.90;;;;;;5074249;28;20675;-66
2021/07/24 08:06:26;;;;;;;10.23;9.25;;;24.30;99.90;;;;;;5055774;28;20225;-66
2021/07/24 08:08:51;;;;;;;9.63;8.20;;;24.50;99.90;;;;;;5054468;28;20171;-67
2021/07/24 08:11:17;;;;;;;10.02;9.13;;;24.70;99.90;;;;;;5067943;28;20228;-67
2021/07/24 08:13:43;;;;;;;9.52;8.63;;;25.00;99.90;;;;;;5073937;28;20216;-66
2021/07/24 08:16:17;;;;;;;10.80;8.90;;;25.20;99.90;;;;;;5071298;28;20934;-67
2021/07/24 08:18:44;;;;;;;10.18;8.90;;;25.50;99.90;;;;;;5073044;28;20522;-66
2021/07/24 08:21:09;;;;;;;10.15;9.25;;;25.50;99.90;;;;;;5067430;28;20259;-67
2021/07/24 08:23:35;;;;;;;10.13;9.13;;;25.40;99.90;;;;;;5074137;28;20198;-66
2021/07/24 08:26:00;;;;;;;9.85;8.32;;;25.30;99.90;;;;;;5058150;28;20278;-67
2021/07/24 08:28:27;;;;;;;11.18;9.30;;;25.20;99.90;;;;;;5053903;28;20187;-67
2021/07/24 08:30:53;;;;;;;10.02;9.05;;;25.10;99.90;;;;;;5053834;28;20541;-67
2021/07/24 08:33:18;;;;;;;10.10;9.10;;;24.90;99.90;;;;;;5062437;28;20197;-67
2021/07/24 08:35:44;;;;;;;9.98;8.85;;;24.90;99.90;;;;;;5072322;28;20572;-66
2021/07/24 08:38:10;;;;;;;11.32;10.02;;;24.60;99.90;;;;;;5067020;28;20538;-67
2021/07/24 08:40:37;;;;;;;10.90;9.90;;;24.60;99.90;;;;;;5053553;28;20175;-66
2021/07/24 08:43:06;;;;;;;10.35;9.35;;;24.40;99.90;;;;;;5058515;28;20171;-66
2021/07/24 08:45:33;;;;;;;10.70;9.70;;;24.40;99.90;;;;;;5073429;28;20177;-66
2021/07/24 08:48:08;;;;;;;10.90;9.80;;;24.30;99.90;;;;;;5069649;28;20191;-67
2021/07/24 08:50:34;;;;;;;10.55;9.55;;;24.10;99.90;;;;;;5053895;28;20167;-67
2021/07/24 08:53:04;;;;;;;9.82;8.88;;;24.00;99.90;;;;;;5057006;28;20166;-66
2021/07/24 08:55:30;;;;;;;10.57;9.57;;;23.90;99.90;;;;;;5097575;22;20229;-67
2021/07/24 08:57:58;;;;;;;9.82;8.93;;;23.80;99.90;;;;;;5071875;28;20175;-66
2021/07/24 09:00:26;;;;;;;11.50;10.30;;;23.60;99.90;;;;;;5073674;28;20530;-67
2021/07/24 09:02:52;;;;;;;12.48;9.52;;;23.50;99.90;;;;;;5071838;28;20592;-67
2021/07/24 09:05:18;;;;;;;10.35;9.38;;;23.50;99.90;;;;;;5053141;28;20221;-67
2021/07/24 09:07:49;;;;;;;11.55;10.35;;;23.50;99.90;;;;;;5052849;28;20212;-67
2021/07/24 09:10:16;;;;;;;11.15;10.05;;;23.60;99.90;;;;;;5062233;28;20208;-67
2021/07/24 09:12:44;;;;;;;11.23;9.77;;;23.60;99.90;;;;;;5072396;28;20190;-67
2021/07/24 09:15:12;;;;;;;10.20;8.98;;;23.60;99.90;;;;;;5072716;28;20190;-67
2021/07/24 09:17:38;;;;;;;10.07;9.18;;;23.60;99.90;;;;;;5072947;28;20181;-67
2021/07/24 09:20:04;;;;;;;12.35;9.70;;;23.60;99.90;;;;;;5072970;28;20192;-67
2021/07/24 09:22:35;;;;;;;12.40;9.65;;;23.60;99.90;;;;;;5072914;28;20206;-67
2021/07/24 09:25:08;;;;;;;11.52;10.38;;;23.60;99.90;;;;;;5072539;28;20197;-68
2021/07/24 09:27:34;;;;;;;10.68;9.57;;;23.60;99.90;;;;;;5072453;28;20189;-67
2021/07/24 09:30:01;;;;;;;10.52;9.48;;;23.70;99.90;;;;;;5073286;28;20173;-67
2021/07/24 09:32:28;;;;;;;10.02;9.13;;;23.80;99.90;;;;;;5072583;28;20847;-67
2021/07/24 09:34:53;;;;;;;10.70;9.70;;;23.90;99.90;;;;;;5072488;28;20201;-69
2021/07/24 09:37:24;;;;;;;13.18;10.73;;;23.90;99.90;;;;;;5072518;28;20181;-67
2021/07/24 09:39:49;;;;;;;13.13;10.93;;;23.90;99.90;;;;;;5073006;28;20248;-67
2021/07/24 09:42:15;;;;;;;17.92;11.40;;;24.00;99.90;;;;;;5072366;28;20202;-68
2021/07/24 09:44:41;;;;;;;14.20;10.77;;;24.10;99.90;;;;;;5072659;28;20202;-67
2021/07/24 09:47:08;;;;;;;12.73;10.57;;;24.20;99.90;;;;;;5072284;28;20277;-67
2021/07/24 09:49:38;;;;;;;11.38;10.27;;;24.10;99.90;;;;;;5072521;28;20177;-68
2021/07/24 09:52:16;;;;;;;12.75;10.75;;;24.00;99.90;;;;;;5072165;28;20659;-67
2021/07/24 09:54:42;;;;;;;12.45;11.20;;;23.90;99.90;;;;;;5070650;28;20224;-67
2021/07/24 09:57:08;;;;;;;11.60;10.52;;;23.80;99.90;;;;;;5072093;28;20651;-67
2021/07/24 09:59:34;;;;;;;12.55;11.10;;;23.70;99.90;;;;;;5071153;28;20584;-67
2021/07/24 10:02:05;;;;;;;13.02;11.45;;;23.50;99.90;;;;;;5072051;28;20202;-67
2021/07/24 10:04:34;;;;;;;12.70;11.40;;;23.60;99.90;;;;;;5071758;28;20218;-68
2021/07/24 10:07:04;;;;;;;14.13;11.45;;;23.60;99.90;;;;;;5072047;28;20174;-67
2021/07/24 10:09:34;;;;;;;12.20;11.20;;;23.70;99.90;;;;;;5071550;28;20186;-67
2021/07/24 10:12:05;;;;;;;12.23;11.02;;;23.60;99.90;;;;;;5072038;28;20602;-67
2021/07/24 10:14:31;;;;;;;13.38;11.02;;;23.60;99.90;;;;;;5071615;28;20204;-66
2021/07/24 10:17:01;;;;;;;11.98;10.77;;;23.60;99.90;;;;;;5071250;28;20177;-66
2021/07/24 10:19:28;;;;;;;12.38;11.07;;;23.60;99.90;;;;;;5070392;28;20189;-66
2021/07/24 10:21:56;;;;;;;11.50;10.32;;;23.50;99.90;;;;;;5072069;28;20568;-66
2021/07/24 10:24:22;;;;;;;12.02;10.73;;;23.60;99.90;;;;;;5071384;28;20190;-68
2021/07/24 10:26:53;;;;;;;15.40;11.40;;;23.60;99.90;;;;;;5071783;28;20167;-66
2021/07/24 10:29:27;;;;;;;13.10;10.95;;;23.60;99.90;;;;;;5071545;28;20182;-68
2021/07/24 10:32:01;;;;;;;14.57;11.80;;;23.60;99.90;;;;;;5071894;28;20170;-67
2021/07/24 10:34:32;;;;;;;12.98;11.68;;;23.60;99.90;;;;;;5071141;28;20197;-68
2021/07/24 10:36:58;;;;;;;11.60;10.57;;;23.80;99.90;;;;;;5071805;28;20174;-68
2021/07/24 10:39:24;;;;;;;11.80;10.60;;;24.00;99.90;;;;;;5071290;28;20576;-67
2021/07/24 10:42:11;;;;;;;13.90;12.25;;;24.10;99.90;;;;;;5071671;28;20303;-67
2021/07/24 10:44:37;;;;;;;13.43;11.43;;;24.10;99.90;;;;;;5070846;28;20194;-68
2021/07/24 10:47:02;;;;;;;14.52;12.75;;;24.20;99.90;;;;;;5071641;28;20193;-67
2021/07/24 10:49:34;;;;;;;13.00;11.70;;;24.20;99.90;;;;;;5071197;28;20174;-67
2021/07/24 10:52:04;;;;;;;13.73;12.27;;;24.10;99.90;;;;;;5071540;28;20181;-68
2021/07/24 10:54:53;;;;;;;13.82;12.40;;;24.20;99.90;;;;;;5070744;28;20292;-67
2021/07/24 10:58:01;;;;;;;13.32;11.73;;;24.30;99.90;;;;;;5071249;28;20468;-68
2021/07/24 11:00:31;;;;;;;13.85;12.45;;;24.30;99.90;;;;;;5048630;28;20806;-67
2021/07/24 11:02:57;;;;;;;12.75;11.55;;;24.30;99.90;;;;;;5049183;28;20178;-67
2021/07/24 11:05:23;;;;;;;14.10;12.43;;;24.40;99.90;;;;;;5059911;28;20220;-67
2021/07/24 11:07:49;;;;;;;12.48;11.10;;;24.40;99.90;;;;;;5071878;28;20565;-66
2021/07/24 11:10:15;;;;;;;12.77;11.57;;;24.60;99.90;;;;;;5071451;28;20174;-67
2021/07/24 11:12:41;;;;;;;12.10;10.85;;;24.80;99.90;;;;;;5071549;28;20280;-67
2021/07/24 11:15:11;;;;;;;13.00;11.73;;;24.80;99.90;;;;;;5070875;28;20201;-68
2021/07/24 11:17:37;;;;;;;12.65;11.35;;;24.80;99.90;;;;;;5070540;28;20695;-67
2021/07/24 11:20:24;;;;;;;15.00;11.60;;;24.80;99.90;;;;;;5072240;28;20284;-67
2021/07/24 11:23:03;;;;;;;12.05;10.85;;;24.80;99.90;;;;;;5075477;28;20173;-68
2021/07/24 11:25:31;;;;;;;14.68;13.15;;;24.60;99.90;;;;;;5074474;28;20200;-68
2021/07/24 11:27:58;;;;;;;13.65;11.00;;;24.60;99.90;;;;;;5075467;28;20162;-67
2021/07/24 11:30:26;;;;;;;13.98;12.48;;;24.70;99.90;;;;;;5074713;28;20179;-67
2021/07/24 11:32:55;;;;;;;13.48;12.18;;;24.80;99.90;;;;;;5075014;28;20170;-68
2021/07/24 11:35:27;;;;;;;12.18;10.98;;;24.70;99.90;;;;;;5074570;28;20197;-67
2021/07/24 11:37:53;;;;;;;15.70;12.13;;;24.70;99.90;;;;;;5075138;28;20170;-66
2021/07/24 11:40:22;;;;;;;13.38;11.82;;;24.80;99.90;;;;;;5074956;28;20239;-67
2021/07/24 11:43:07;;;;;;;13.38;12.05;;;24.80;99.90;;;;;;5074852;28;20204;-67
2021/07/24 11:45:40;;;;;;;13.32;11.85;;;24.70;99.90;;;;;;5073420;28;20671;-67
2021/07/24 11:48:12;;;;;;;13.63;12.23;;;24.80;99.90;;;;;;5072610;28;20261;-67
2021/07/24 11:50:40;;;;;;;15.15;11.23;;;24.80;99.90;;;;;;5074618;28;20644;-67
2021/07/24 11:53:06;;;;;;;15.70;11.95;;;24.70;99.90;;;;;;5074690;28;20171;-67
2021/07/24 11:55:33;;;;;;;13.75;12.45;;;24.50;99.90;;;;;;5074000;28;20205;-68
2021/07/24 11:58:10;;;;;;;12.77;11.55;;;24.40;99.90;;;;;;5074942;28;20174;-69
2021/07/24 12:00:38;;;;;;;15.18;11.90;;;24.40;99.90;;;;;;5074425;28;20170;-68
2021/07/24 12:03:13;;;;;;;13.80;12.50;;;24.40;99.90;;;;;;5074556;28;20651;-67
2021/07/24 12:05:39;;;;;;;13.07;11.73;;;24.00;99.90;;;;;;5061706;28;20285;-69
2021/07/24 12:08:06;;;;;;;13.00;11.48;;;23.90;99.90;;;;;;5054648;28;20197;-67
2021/07/24 12:10:36;;;;;;;12.55;11.32;;;23.90;99.90;;;;;;5054478;28;20174;-67
2021/07/24 12:13:02;;;;;;;13.75;12.30;;;23.90;99.90;;;;;;5065223;28;20265;-68
2021/07/24 12:15:54;;;;;;;17.33;12.75;;;23.80;99.90;;;;;;5073271;28;20281;-67
2021/07/24 12:18:19;;;;;;;13.63;11.98;;;23.70;99.90;;;;;;5073783;28;20171;-67
2021/07/24 12:20:45;;;;;;;15.85;12.68;;;23.60;99.90;;;;;;5074045;28;20400;-67
2021/07/24 12:23:22;;;;;;;16.17;14.13;;;23.40;99.90;;;;;;5073921;28;20258;-67
2021/07/24 12:26:09;;;;;;;14.93;13.02;;;23.10;99.90;;;;;;5073491;28;20623;-67
2021/07/24 12:28:35;;;;;;;16.70;13.48;;;23.10;99.90;;;;;;5073981;28;20224;-68
2021/07/24 12:31:24;;;;;;;14.60;13.10;;;22.90;99.90;;;;;;5072913;28;20181;-67
2021/07/24 12:33:51;;;;;;;16.42;14.63;;;22.60;99.90;;;;;;5073645;28;20201;-67
2021/07/24 12:36:19;;;;;;;16.83;14.63;;;22.10;99.90;;;;;;5073750;28;20205;-68